Lorraine — A8IZ3 — position and weather

sailwx.info

Track history (hours):
 
Tides and Currents Weather Stations Pressure Air Temp Water Temp Dewpoint Dewpoint Depression Visibility Wind Speed Wind Dir Waves Ship Positions

Lorraine

Last reported at 2017-Feb-21 09:05 UTC. Time now 2017-Feb-24 19:30 UTC.
Position N 38°38' E 122°07'.

Length 221 m; draft 9.9 m.

Type: Ship. MMSI: 636012905.

Date/timePositionNaut miles runAvg speedWind from/ knotsBaromVisibWave heightAir tempDewpointWater temp
2017-Feb-21 09:05N 38°38' E 122°07'1416.3
2017-Feb-21 08:15N 38°51' E 122°01'4 0.2
2017-Feb-20 14:33N 38°54' E 121°57'4 3.2
2017-Feb-20 13:28N 38°50' E 121°59'0 0.0
2017-Feb-20 11:09N 38°50' E 121°59'0 0.0
2017-Feb-20 10:26N 38°50' E 121°59'0 0.0
2017-Feb-20 09:32N 38°50' E 121°59'0 0.0
2017-Feb-20 07:19N 38°50' E 121°59'0 0.0
2017-Feb-20 06:31N 38°50' E 121°59'0 0.0
2017-Feb-20 05:33N 38°50' E 121°59'0 0.1
2017-Feb-20 04:27N 38°51' E 121°59'0 0.0
2017-Feb-20 03:32N 38°51' E 121°59'0 0.0
2017-Feb-20 02:32N 38°51' E 121°59'0 0.1
2017-Feb-20 01:32N 38°50' E 121°59'0 0.0
2017-Feb-20 00:31N 38°50' E 121°59'0 0.0
2017-Feb-19 23:31N 38°50' E 121°59'0 0.0
2017-Feb-19 22:06N 38°50' E 121°59'0 0.0
2017-Feb-19 21:33N 38°50' E 121°59'0 0.0
2017-Feb-19 20:32N 38°50' E 121°59'0 0.0
2017-Feb-19 19:23N 38°50' E 121°59'0 0.0
2017-Feb-19 18:32N 38°50' E 121°59'0 0.0
2017-Feb-19 17:31N 38°50' E 121°59'0 0.2
2017-Feb-19 16:28N 38°51' E 121°59'0 0.1
2017-Feb-19 15:27N 38°51' E 121°59'0 0.0
2017-Feb-19 14:33N 38°51' E 121°59'0 0.0
2017-Feb-19 13:20N 38°51' E 121°59'0 0.1
2017-Feb-19 12:32N 38°51' E 121°59'0 0.0
2017-Feb-19 11:32N 38°51' E 121°59'0 0.0
2017-Feb-19 10:31N 38°51' E 121°59'0 0.0
2017-Feb-19 09:31N 38°51' E 121°59'4 4.4
2017-Feb-19 08:33N 38°50' E 121°53'1110.9
2017-Feb-19 07:33N 38°40' E 121°48'1110.4
2017-Feb-19 06:32N 38°31' E 121°40'2311.4
2017-Feb-19 04:33N 38°30' E 121°12'1211.3
2017-Feb-19 03:27N 38°33' E 120°56'1111.9
2017-Feb-19 02:33N 38°36' E 120°43'1313.2
2017-Feb-19 01:33N 38°37' E 120°26'10 0.3
2017-Feb-17 15:33N 38°38' E 120°39'1313.0
2017-Feb-17 14:33N 38°35' E 120°55'1413.2
2017-Feb-17 13:31N 38°30' E 121°11'  
Track history (hours):
 
Tides and Currents Weather Stations Pressure Air Temp Water Temp Dewpoint Dewpoint Depression Visibility Wind Speed Wind Dir Waves Ship Positions

Lorraine

Last reported at 2017-Feb-21 09:05 UTC. Time now 2017-Feb-24 19:30 UTC.
Position N 38°38' E 122°07'.

Length 221 m; draft 9.9 m.

Type: Ship. MMSI: 636012905.

Date/timePositionNaut miles runAvg speedWind from/ knotsBaromVisibWave heightAir tempDewpointWater temp
2017-Feb-21 09:05N 38°38' E 122°07'1416.3
2017-Feb-21 08:15N 38°51' E 122°01'4 0.2
2017-Feb-20 14:33N 38°54' E 121°57'4 3.2
2017-Feb-20 13:28N 38°50' E 121°59'0 0.0
2017-Feb-20 11:09N 38°50' E 121°59'0 0.0
2017-Feb-20 10:26N 38°50' E 121°59'0 0.0
2017-Feb-20 09:32N 38°50' E 121°59'0 0.0
2017-Feb-20 07:19N 38°50' E 121°59'0 0.0
2017-Feb-20 06:31N 38°50' E 121°59'0 0.0
2017-Feb-20 05:33N 38°50' E 121°59'0 0.1
2017-Feb-20 04:27N 38°51' E 121°59'0 0.0
2017-Feb-20 03:32N 38°51' E 121°59'0 0.0
2017-Feb-20 02:32N 38°51' E 121°59'0 0.1
2017-Feb-20 01:32N 38°50' E 121°59'0 0.0
2017-Feb-20 00:31N 38°50' E 121°59'0 0.0
2017-Feb-19 23:31N 38°50' E 121°59'0 0.0
2017-Feb-19 22:06N 38°50' E 121°59'0 0.0
2017-Feb-19 21:33N 38°50' E 121°59'0 0.0
2017-Feb-19 20:32N 38°50' E 121°59'0 0.0
2017-Feb-19 19:23N 38°50' E 121°59'0 0.0
2017-Feb-19 18:32N 38°50' E 121°59'0 0.0
2017-Feb-19 17:31N 38°50' E 121°59'0 0.2
2017-Feb-19 16:28N 38°51' E 121°59'0 0.1
2017-Feb-19 15:27N 38°51' E 121°59'0 0.0
2017-Feb-19 14:33N 38°51' E 121°59'0 0.0
2017-Feb-19 13:20N 38°51' E 121°59'0 0.1
2017-Feb-19 12:32N 38°51' E 121°59'0 0.0
2017-Feb-19 11:32N 38°51' E 121°59'0 0.0
2017-Feb-19 10:31N 38°51' E 121°59'0 0.0
2017-Feb-19 09:31N 38°51' E 121°59'4 4.4
2017-Feb-19 08:33N 38°50' E 121°53'1110.9
2017-Feb-19 07:33N 38°40' E 121°48'1110.4
2017-Feb-19 06:32N 38°31' E 121°40'2311.4
2017-Feb-19 04:33N 38°30' E 121°12'1211.3
2017-Feb-19 03:27N 38°33' E 120°56'1111.9
2017-Feb-19 02:33N 38°36' E 120°43'1313.2
2017-Feb-19 01:33N 38°37' E 120°26'10 0.3
2017-Feb-17 15:33N 38°38' E 120°39'1313.0
2017-Feb-17 14:33N 38°35' E 120°55'1413.2
2017-Feb-17 13:31N 38°30' E 121°11'  

Dump ship's entire track history